Time;durP1;ratioP1;P1;durP2;ratioP2;P2;SDS_P1;SDS_P2;PMS_P1;PMS_P2;Temp;Humidity;BMP_temperature;BMP_pressure;BME280_temperature;BME280_humidity;BME280_pressure;Samples;Min_cycle;Max_cycle;Signal;HPM_P1;HPM_P2
2023/05/17 04:05:49;;;;;;;0.90;0.90;;;6.00;99.90;;;;;;5251542;23;20236;-66
2023/05/17 04:08:16;;;;;;;1.50;1.40;;;6.10;99.90;;;;;;4975225;28;20223;-65
2023/05/17 04:10:41;;;;;;;1.50;1.40;;;6.10;99.90;;;;;;4975814;28;20199;-66
2023/05/17 04:13:08;;;;;;;1.70;1.20;;;6.20;99.90;;;;;;4957565;28;20183;-66
2023/05/17 04:15:34;;;;;;;1.10;1.02;;;6.20;99.90;;;;;;4974963;28;20223;-66
2023/05/17 04:18:00;;;;;;;2.05;1.38;;;6.30;99.90;;;;;;4975222;28;20170;-65
2023/05/17 04:20:26;;;;;;;2.57;1.40;;;6.30;99.90;;;;;;4975206;28;20545;-65
2023/05/17 04:22:51;;;;;;;1.60;1.13;;;6.40;99.90;;;;;;4957541;28;20618;-65
2023/05/17 04:25:17;;;;;;;1.43;1.40;;;6.50;99.90;;;;;;4974614;28;20192;-65
2023/05/17 04:27:44;;;;;;;0.90;0.90;;;6.60;99.90;;;;;;4974943;28;20676;-65
2023/05/17 04:30:11;;;;;;;1.50;0.77;;;6.70;99.90;;;;;;4974902;28;20171;-66
2023/05/17 04:32:36;;;;;;;1.60;1.50;;;6.80;99.90;;;;;;4957554;28;20234;-65
2023/05/17 04:35:02;;;;;;;1.50;1.50;;;7.00;99.90;;;;;;4973691;28;20190;-65
2023/05/17 04:37:28;;;;;;;1.10;1.10;;;7.10;99.90;;;;;;4974958;28;20169;-65
2023/05/17 04:39:53;;;;;;;2.17;1.60;;;7.30;99.90;;;;;;4975016;28;20164;-65
2023/05/17 04:42:19;;;;;;;1.60;1.50;;;7.40;99.90;;;;;;4974768;28;20175;-65
2023/05/17 04:44:44;;;;;;;0.90;0.90;;;7.50;99.90;;;;;;4974511;28;20233;-65
2023/05/17 04:47:10;;;;;;;0.87;0.87;;;7.60;99.90;;;;;;4957646;28;20246;-66
2023/05/17 04:49:36;;;;;;;1.43;1.00;;;7.80;99.90;;;;;;4957370;28;20264;-66
2023/05/17 04:52:01;;;;;;;1.60;1.50;;;7.90;99.90;;;;;;4974768;28;20168;-66
2023/05/17 04:54:27;;;;;;;2.37;1.87;;;8.10;99.90;;;;;;4974312;28;20196;-66
2023/05/17 04:56:52;;;;;;;0.90;0.90;;;8.30;99.90;;;;;;4974507;28;20176;-66
2023/05/17 04:59:18;;;;;;;3.90;2.03;;;8.50;99.90;;;;;;4974640;28;20182;-65
2023/05/17 05:01:44;;;;;;;1.70;1.03;;;8.70;99.90;;;;;;4974024;28;20176;-64
2023/05/17 05:04:09;;;;;;;1.40;1.30;;;8.80;99.90;;;;;;4973853;28;20286;-65
2023/05/17 05:06:35;;;;;;;0.97;0.97;;;8.90;99.90;;;;;;4974318;28;20183;-66
2023/05/17 05:09:00;;;;;;;1.00;1.00;;;9.00;99.90;;;;;;4974369;28;20168;-65
2023/05/17 05:11:26;;;;;;;1.10;1.10;;;9.00;99.90;;;;;;4973697;28;20203;-65
2023/05/17 05:13:52;;;;;;;1.30;1.00;;;9.10;99.90;;;;;;4977794;28;20206;-66
2023/05/17 05:16:17;;;;;;;1.17;1.10;;;9.20;99.90;;;;;;4978420;28;20258;-66
2023/05/17 05:18:43;;;;;;;1.83;0.90;;;9.30;99.90;;;;;;4978322;28;20175;-66
2023/05/17 05:21:08;;;;;;;1.30;1.20;;;9.40;99.90;;;;;;4977924;28;20183;-65
2023/05/17 05:23:34;;;;;;;1.60;1.50;;;9.40;99.90;;;;;;4976474;28;20192;-65
2023/05/17 05:26:00;;;;;;;1.10;1.00;;;9.50;99.90;;;;;;4975262;28;20196;-64
2023/05/17 05:28:25;;;;;;;5.17;1.80;;;9.50;99.90;;;;;;4978032;28;20222;-65
2023/05/17 05:30:59;;;;;;;1.10;1.10;;;9.60;99.90;;;;;;4966089;28;20181;-65
2023/05/17 05:33:25;;;;;;;1.13;0.90;;;9.70;99.90;;;;;;4958506;29;20180;-65
2023/05/17 05:35:51;;;;;;;1.20;1.20;;;9.80;99.90;;;;;;4958236;29;20562;-66
2023/05/17 05:38:17;;;;;;;1.02;1.02;;;9.80;99.90;;;;;;4941063;29;20426;-66
2023/05/17 05:40:45;;;;;;;1.03;0.80;;;9.80;99.90;;;;;;4958321;29;20274;-65
2023/05/17 05:43:11;;;;;;;1.40;1.20;;;9.90;99.90;;;;;;4970930;28;20450;-65
2023/05/17 05:45:36;;;;;;;1.73;0.60;;;9.90;99.90;;;;;;4977162;28;20287;-67
2023/05/17 05:48:04;;;;;;;1.10;1.00;;;10.00;99.90;;;;;;4977591;28;20172;-66
2023/05/17 05:50:29;;;;;;;1.02;1.02;;;10.10;99.90;;;;;;4974945;28;20196;-67
2023/05/17 05:52:56;;;;;;;1.17;1.17;;;10.20;99.90;;;;;;4958173;29;20256;-72
2023/05/17 05:55:22;;;;;;;3.17;1.55;;;10.40;99.90;;;;;;4958043;29;20190;-66
2023/05/17 05:57:47;;;;;;;0.67;0.67;;;10.40;99.90;;;;;;4966409;28;20638;-66
2023/05/17 06:00:14;;;;;;;0.97;0.97;;;10.60;99.90;;;;;;4977598;28;20202;-66
2023/05/17 06:02:40;;;;;;;0.70;0.70;;;10.90;99.90;;;;;;4973128;28;20183;-67
2023/05/17 06:05:05;;;;;;;2.13;1.93;;;11.00;99.90;;;;;;4967641;28;20473;-65
2023/05/17 06:07:31;;;;;;;1.13;1.03;;;11.20;99.90;;;;;;4974687;28;20468;-66
2023/05/17 06:09:57;;;;;;;1.20;1.10;;;11.30;99.90;;;;;;4973484;28;20437;-65
2023/05/17 06:12:22;;;;;;;1.10;1.00;;;11.40;99.90;;;;;;4977080;28;20183;-65
2023/05/17 06:14:48;;;;;;;0.70;0.70;;;11.50;99.90;;;;;;4976170;28;20218;-67
2023/05/17 06:17:13;;;;;;;1.27;1.10;;;11.60;99.90;;;;;;4976595;28;20598;-67
2023/05/17 06:19:39;;;;;;;0.80;0.80;;;11.70;99.90;;;;;;4959575;28;20175;-66
2023/05/17 06:22:05;;;;;;;0.77;0.77;;;11.70;99.90;;;;;;4977394;28;20178;-66
2023/05/17 06:24:30;;;;;;;1.90;1.30;;;11.90;99.90;;;;;;4975644;28;20581;-67
2023/05/17 06:26:56;;;;;;;1.67;0.97;;;12.00;99.90;;;;;;4976929;28;20179;-67
2023/05/17 06:29:22;;;;;;;1.17;0.70;;;12.10;99.90;;;;;;4977093;28;20644;-67
2023/05/17 06:31:48;;;;;;;1.10;1.00;;;12.10;99.90;;;;;;4959653;28;20179;-67
2023/05/17 06:34:13;;;;;;;1.80;1.23;;;12.00;99.90;;;;;;4976338;28;20525;-67
2023/05/17 06:36:39;;;;;;;1.63;1.53;;;12.00;99.90;;;;;;4976817;28;20165;-67
2023/05/17 06:39:05;;;;;;;1.00;1.00;;;12.00;99.90;;;;;;4976921;28;20168;-66
2023/05/17 06:41:30;;;;;;;1.77;1.67;;;12.10;99.90;;;;;;4959396;28;20277;-66
2023/05/17 06:43:56;;;;;;;1.97;1.83;;;12.30;99.90;;;;;;4976207;28;20203;-66
2023/05/17 06:46:21;;;;;;;1.00;1.00;;;12.50;99.90;;;;;;4976683;28;20607;-66
2023/05/17 06:48:47;;;;;;;1.13;1.07;;;12.60;99.90;;;;;;4976647;28;20168;-66
2023/05/17 06:51:12;;;;;;;0.90;0.90;;;12.70;99.90;;;;;;4976505;28;20180;-67
2023/05/17 06:53:38;;;;;;;0.93;0.93;;;12.80;99.90;;;;;;4975955;28;20258;-66
2023/05/17 06:56:04;;;;;;;0.77;0.77;;;12.60;99.90;;;;;;4976360;28;20191;-67
2023/05/17 06:58:29;;;;;;;1.07;1.07;;;12.60;99.90;;;;;;4976059;28;20168;-67
2023/05/17 07:00:56;;;;;;;0.80;0.63;;;12.70;99.90;;;;;;4976243;28;20550;-67
2023/05/17 07:03:21;;;;;;;0.70;0.70;;;12.80;99.90;;;;;;4958419;28;20275;-68
2023/05/17 07:05:47;;;;;;;1.40;1.30;;;12.90;99.90;;;;;;4976184;28;20901;-67
2023/05/17 07:08:14;;;;;;;0.83;0.83;;;13.00;99.90;;;;;;4976315;28;20194;-67
2023/05/17 07:10:39;;;;;;;1.10;1.10;;;13.10;99.90;;;;;;4976136;28;20164;-67
2023/05/17 07:13:05;;;;;;;1.10;1.10;;;13.00;99.90;;;;;;4976071;28;20393;-67
2023/05/17 07:15:30;;;;;;;1.50;1.40;;;13.10;99.90;;;;;;4975572;28;20318;-67
2023/05/17 07:17:56;;;;;;;1.27;1.17;;;13.20;99.90;;;;;;4975964;28;20554;-67
2023/05/17 07:20:22;;;;;;;1.60;1.20;;;13.10;99.90;;;;;;4975929;28;20198;-67
2023/05/17 07:22:47;;;;;;;1.50;1.00;;;13.00;99.90;;;;;;4975769;28;20184;-68
2023/05/17 07:25:14;;;;;;;1.00;1.00;;;13.20;99.90;;;;;;4975276;28;20669;-66
2023/05/17 07:27:40;;;;;;;1.03;1.03;;;13.40;99.90;;;;;;4976030;28;20623;-66
2023/05/17 07:30:06;;;;;;;1.37;1.27;;;13.50;99.90;;;;;;4975861;28;20386;-67
2023/05/17 07:32:32;;;;;;;1.00;1.00;;;13.80;99.90;;;;;;4975705;28;20167;-66
2023/05/17 07:34:57;;;;;;;2.77;1.83;;;14.50;99.90;;;;;;4974753;28;20403;-66
2023/05/17 07:37:23;;;;;;;1.50;1.10;;;15.20;99.90;;;;;;4975481;28;20664;-66
2023/05/17 07:39:48;;;;;;;2.07;1.43;;;15.80;99.20;;;;;;4975283;28;20176;-67
2023/05/17 07:42:14;;;;;;;1.07;1.03;;;16.10;98.30;;;;;;4975538;28;20256;-66
2023/05/17 07:44:40;;;;;;;1.40;1.30;;;17.00;98.40;;;;;;4975064;28;20236;-66
2023/05/17 07:47:06;;;;;;;0.93;0.80;;;17.80;95.70;;;;;;4975214;28;20439;-67
2023/05/17 07:49:31;;;;;;;1.57;1.47;;;18.10;94.40;;;;;;4975180;28;20199;-67
2023/05/17 07:51:57;;;;;;;0.97;0.93;;;18.70;94.70;;;;;;4975247;28;20187;-67
2023/05/17 07:54:26;;;;;;;1.30;1.20;;;19.40;92.90;;;;;;4974972;28;20286;-68
2023/05/17 07:56:54;;;;;;;1.10;1.10;;;19.70;90.90;;;;;;4975379;28;20180;-67
2023/05/17 07:59:20;;;;;;;3.50;1.47;;;20.00;90.00;;;;;;4975362;28;20412;-64
2023/05/17 08:01:46;;;;;;;2.43;1.60;;;20.20;89.30;;;;;;4975144;28;20488;-68
2023/05/17 08:04:13;;;;;;;2.23;1.60;;;20.10;88.70;;;;;;4974514;28;20884;-65
2023/05/17 08:06:39;;;;;;;1.63;1.20;;;19.70;89.00;;;;;;4974806;28;20207;-67
2023/05/17 08:09:05;;;;;;;1.67;1.40;;;19.40;90.30;;;;;;4958001;28;20453;-66
2023/05/17 08:11:33;;;;;;;3.10;1.47;;;19.60;90.60;;;;;;4975041;28;20391;-67
2023/05/17 08:13:58;;;;;;;1.90;1.80;;;19.60;90.40;;;;;;4974661;28;20259;-67
2023/05/17 08:16:25;;;;;;;1.17;1.13;;;19.80;91.10;;;;;;4974903;28;20425;-67
2023/05/17 08:18:50;;;;;;;1.00;0.93;;;19.80;91.10;;;;;;4974964;28;20542;-67
2023/05/17 08:21:16;;;;;;;1.37;1.30;;;19.40;90.70;;;;;;4975040;28;20503;-67
2023/05/17 08:23:42;;;;;;;1.77;1.50;;;18.70;91.20;;;;;;4974114;28;20203;-66
2023/05/17 08:26:08;;;;;;;1.47;1.37;;;18.30;91.90;;;;;;4974976;28;20207;-66
2023/05/17 08:28:33;;;;;;;1.23;1.13;;;17.90;92.80;;;;;;4957725;28;20390;-67
2023/05/17 08:30:59;;;;;;;1.80;1.10;;;18.40;93.30;;;;;;4974669;28;20175;-66
2023/05/17 08:33:25;;;;;;;2.07;1.87;;;19.30;92.60;;;;;;4974136;28;20590;-67
2023/05/17 08:35:54;;;;;;;2.40;1.50;;;20.20;90.90;;;;;;4957689;28;20197;-67
2023/05/17 08:38:20;;;;;;;1.70;1.60;;;20.90;90.00;;;;;;4974699;28;20415;-67
2023/05/17 08:40:53;;;;;;;1.87;1.77;;;20.60;87.40;;;;;;4974779;28;20756;-67
2023/05/17 08:43:21;;;;;;;1.40;1.30;;;19.80;86.20;;;;;;4974375;28;20429;-67
2023/05/17 08:45:48;;;;;;;2.00;1.37;;;19.10;87.80;;;;;;4974418;28;21036;-66
2023/05/17 08:48:16;;;;;;;1.07;0.97;;;18.50;90.60;;;;;;4974112;28;20408;-67
2023/05/17 08:50:43;;;;;;;1.20;1.10;;;18.40;91.00;;;;;;4974619;28;20494;-66
2023/05/17 08:53:10;;;;;;;1.70;1.13;;;19.20;90.90;;;;;;4973996;28;20416;-68
2023/05/17 08:55:36;;;;;;;1.50;1.40;;;20.40;90.30;;;;;;4974319;28;20425;-66
2023/05/17 08:58:04;;;;;;;1.70;1.50;;;21.50;87.60;;;;;;4974216;28;20390;-67
2023/05/17 09:00:32;;;;;;;2.13;1.93;;;22.30;82.20;;;;;;4974370;28;20414;-67
2023/05/17 09:02:59;;;;;;;1.43;1.20;;;23.30;84.40;;;;;;4956303;28;20521;-66
2023/05/17 09:05:25;;;;;;;1.47;1.37;;;24.20;80.90;;;;;;4954808;29;20428;-68
2023/05/17 09:07:52;;;;;;;1.60;1.50;;;24.80;80.00;;;;;;4955244;29;20429;-67
2023/05/17 09:10:18;;;;;;;1.53;1.43;;;24.00;74.60;;;;;;4955081;29;20428;-68
2023/05/17 09:12:44;;;;;;;2.00;1.70;;;22.90;75.00;;;;;;4954913;29;20408;-67
2023/05/17 09:15:17;;;;;;;2.33;1.60;;;21.80;77.00;;;;;;4954806;29;20219;-67
2023/05/17 09:17:51;;;;;;;1.50;1.33;;;20.90;79.80;;;;;;4955307;29;20408;-68
2023/05/17 09:20:24;;;;;;;1.43;1.33;;;20.40;80.20;;;;;;4955231;29;20897;-68
2023/05/17 09:22:50;;;;;;;1.50;1.40;;;19.70;80.00;;;;;;4955146;29;20407;-66
2023/05/17 09:25:22;;;;;;;2.13;1.30;;;18.90;81.30;;;;;;4955183;29;20498;-67
2023/05/17 09:27:51;;;;;;;1.40;1.30;;;18.30;82.80;;;;;;4954935;28;20392;-67
2023/05/17 09:30:17;;;;;;;1.30;1.20;;;17.60;85.30;;;;;;4954843;29;20394;-67
2023/05/17 09:32:46;;;;;;;2.97;1.73;;;17.10;87.90;;;;;;4954634;29;20387;-67
2023/05/17 09:35:12;;;;;;;1.43;1.33;;;16.80;88.90;;;;;;4954594;29;20201;-67
2023/05/17 09:37:38;;;;;;;1.20;1.10;;;16.70;90.10;;;;;;4937706;29;20954;-67
2023/05/17 09:40:06;;;;;;;1.33;1.33;;;16.40;89.10;;;;;;4954963;29;20384;-66
2023/05/17 09:42:37;;;;;;;1.70;1.30;;;16.20;90.00;;;;;;4937726;29;20270;-66
2023/05/17 09:45:04;;;;;;;1.20;1.10;;;16.00;90.40;;;;;;4954392;29;20428;-67
2023/05/17 09:47:32;;;;;;;2.07;1.30;;;16.30;90.40;;;;;;4954705;29;20748;-66
2023/05/17 09:50:01;;;;;;;1.43;1.33;;;16.70;89.20;;;;;;4970050;28;20490;-67
2023/05/17 09:52:34;;;;;;;2.50;1.43;;;16.70;87.50;;;;;;4973372;28;20407;-67
2023/05/17 09:55:00;;;;;;;1.57;1.47;;;16.40;87.00;;;;;;4973098;28;20790;-66
2023/05/17 09:57:27;;;;;;;1.40;1.27;;;16.10;87.00;;;;;;4972615;28;20452;-66
2023/05/17 09:59:56;;;;;;;1.87;1.77;;;15.80;87.60;;;;;;4975906;28;20497;-66
2023/05/17 10:02:31;;;;;;;1.53;1.10;;;15.60;89.00;;;;;;4977582;28;20502;-67
2023/05/17 10:04:58;;;;;;;1.57;1.47;;;15.40;88.50;;;;;;4976255;28;20464;-65
2023/05/17 10:07:25;;;;;;;3.47;1.30;;;15.20;89.00;;;;;;4977185;28;20444;-67
2023/05/17 10:09:54;;;;;;;1.50;1.40;;;15.30;89.60;;;;;;4977514;28;20967;-65
2023/05/17 10:12:24;;;;;;;1.57;1.37;;;15.60;88.60;;;;;;4976984;28;20401;-66
2023/05/17 10:14:54;;;;;;;1.67;1.57;;;15.70;87.80;;;;;;4976151;28;20490;-66
2023/05/17 10:17:20;;;;;;;3.97;1.57;;;15.90;90.20;;;;;;4959718;28;20501;-67
2023/05/17 10:19:46;;;;;;;1.40;1.30;;;16.40;90.10;;;;;;4977026;28;20482;-66
2023/05/17 10:22:13;;;;;;;1.40;1.30;;;16.70;88.10;;;;;;4976594;28;20538;-64
2023/05/17 10:24:39;;;;;;;3.13;1.53;;;16.70;87.30;;;;;;4976448;28;20463;-67
2023/05/17 10:27:06;;;;;;;1.50;1.40;;;16.30;88.20;;;;;;4977209;28;20425;-65
2023/05/17 10:29:33;;;;;;;1.80;1.70;;;16.10;88.20;;;;;;4977209;28;20406;-65
2023/05/17 10:32:02;;;;;;;2.70;1.50;;;15.80;90.70;;;;;;4959075;28;20937;-65
2023/05/17 10:34:28;;;;;;;2.90;1.80;;;15.60;89.60;;;;;;4976162;28;20546;-67
2023/05/17 10:36:54;;;;;;;1.10;1.10;;;15.40;89.70;;;;;;4976813;28;20426;-71
2023/05/17 10:39:21;;;;;;;1.83;1.60;;;15.40;90.10;;;;;;4976018;28;20233;-67
2023/05/17 10:41:50;;;;;;;1.23;1.13;;;15.30;90.40;;;;;;4976399;28;20570;-65
2023/05/17 10:44:17;;;;;;;1.30;1.20;;;15.30;90.80;;;;;;4976352;28;20452;-65
2023/05/17 10:46:57;;;;;;;1.50;1.40;;;15.40;90.00;;;;;;4976676;28;20501;-65
2023/05/17 10:49:30;;;;;;;1.00;1.00;;;15.50;90.30;;;;;;4975634;28;20491;-65
2023/05/17 10:51:57;;;;;;;1.27;1.17;;;15.50;90.20;;;;;;4976570;28;20410;-67
2023/05/17 10:54:38;;;;;;;2.97;1.33;;;15.50;90.30;;;;;;4975336;28;20586;-66
2023/05/17 10:57:05;;;;;;;1.50;1.40;;;15.60;90.50;;;;;;4968374;28;20507;-65
2023/05/17 10:59:31;;;;;;;1.50;1.40;;;15.80;90.30;;;;;;4962573;28;20925;-65
2023/05/17 11:02:05;;;;;;;1.80;1.70;;;15.90;88.70;;;;;;4968461;28;20524;-66
2023/05/17 11:04:40;;;;;;;1.17;1.10;;;16.10;89.10;;;;;;4977977;28;21047;-65
2023/05/17 11:07:19;;;;;;;2.30;1.23;;;16.20;89.70;;;;;;4995693;28;20401;-65
2023/05/17 11:09:54;;;;;;;1.40;1.30;;;16.10;87.80;;;;;;4995539;28;20429;-65
2023/05/17 11:12:34;;;;;;;1.83;1.43;;;16.10;87.00;;;;;;4984862;28;20426;-65
2023/05/17 11:15:11;;;;;;;1.23;1.13;;;15.80;87.00;;;;;;4975927;28;20434;-64
2023/05/17 11:17:42;;;;;;;1.57;1.47;;;15.50;87.70;;;;;;4979975;28;20425;-64
2023/05/17 11:20:14;;;;;;;1.03;0.90;;;15.20;88.70;;;;;;4962027;28;20434;-63
2023/05/17 11:22:49;;;;;;;1.40;1.37;;;15.00;90.00;;;;;;4955973;28;20491;-65
2023/05/17 11:25:16;;;;;;;2.13;1.80;;;14.80;90.90;;;;;;4950744;28;20453;-63
2023/05/17 11:27:45;;;;;;;1.80;1.70;;;14.70;91.30;;;;;;4939775;29;20922;-64
2023/05/17 11:30:20;;;;;;;1.60;1.50;;;14.70;91.50;;;;;;4956842;28;20408;-65
2023/05/17 11:32:53;;;;;;;1.60;1.50;;;14.60;91.70;;;;;;4956664;29;20409;-64
2023/05/17 11:35:23;;;;;;;1.47;1.40;;;14.70;92.20;;;;;;4972811;28;20846;-64
2023/05/17 11:37:52;;;;;;;1.30;1.30;;;14.80;92.70;;;;;;4975970;28;20400;-65
2023/05/17 11:40:28;;;;;;;1.43;1.27;;;14.80;92.60;;;;;;4953780;28;20421;-65
2023/05/17 11:43:16;;;;;;;1.27;1.17;;;14.80;92.50;;;;;;4946857;28;20433;-65
2023/05/17 11:45:52;;;;;;;1.43;1.07;;;14.80;92.40;;;;;;4962238;28;20866;-65
2023/05/17 11:48:19;;;;;;;1.47;1.03;;;14.90;92.00;;;;;;4985737;28;20439;-64
2023/05/17 11:50:47;;;;;;;1.37;1.10;;;14.90;91.90;;;;;;4987659;28;20451;-64
2023/05/17 11:53:13;;;;;;;2.07;1.17;;;15.00;92.10;;;;;;4976763;28;20492;-66
2023/05/17 11:55:41;;;;;;;3.30;1.03;;;15.00;92.10;;;;;;4994891;28;20782;-64
2023/05/17 11:58:09;;;;;;;0.87;0.87;;;15.00;92.10;;;;;;4986390;28;20503;-64
2023/05/17 12:00:37;;;;;;;1.30;1.20;;;15.00;90.50;;;;;;4975383;28;20930;-64
2023/05/17 12:03:16;;;;;;;1.40;1.17;;;14.90;90.50;;;;;;4975158;28;20444;-65
2023/05/17 12:05:43;;;;;;;1.17;1.00;;;14.80;90.70;;;;;;4975070;28;20453;-64
2023/05/17 12:08:09;;;;;;;1.20;1.20;;;14.70;90.90;;;;;;4974655;28;20466;-64
2023/05/17 12:10:34;;;;;;;0.83;0.83;;;14.70;91.30;;;;;;4963188;28;20977;-65
2023/05/17 12:13:00;;;;;;;2.10;1.30;;;14.80;91.20;;;;;;4972839;28;20195;-64
2023/05/17 12:15:29;;;;;;;4.73;1.40;;;14.80;91.20;;;;;;4961426;28;20662;-66
2023/05/17 12:17:55;;;;;;;1.50;1.40;;;14.90;91.40;;;;;;4957711;28;20429;-65
2023/05/17 12:20:20;;;;;;;4.90;2.73;;;14.90;91.40;;;;;;4969073;28;20950;-64
2023/05/17 12:22:53;;;;;;;2.03;1.23;;;15.10;91.90;;;;;;4961589;28;20645;-65
2023/05/17 12:25:23;;;;;;;1.90;0.97;;;15.20;91.80;;;;;;4971112;28;20216;-65
2023/05/17 12:27:53;;;;;;;1.43;1.33;;;15.30;91.10;;;;;;4956625;28;20420;-64
2023/05/17 12:30:19;;;;;;;2.20;2.00;;;15.40;90.90;;;;;;4955406;28;20431;-66
2023/05/17 12:32:45;;;;;;;1.30;1.30;;;15.40;91.50;;;;;;4969825;28;20421;-63
2023/05/17 12:35:12;;;;;;;1.77;1.57;;;15.50;91.90;;;;;;4972000;28;20437;-64
2023/05/17 12:37:38;;;;;;;1.17;1.00;;;15.40;91.70;;;;;;4972907;28;20413;-65
2023/05/17 12:40:04;;;;;;;1.13;1.03;;;15.30;92.00;;;;;;4966868;28;20470;-65
2023/05/17 12:42:31;;;;;;;2.13;1.97;;;15.30;92.20;;;;;;4954783;28;20490;-64
2023/05/17 12:45:00;;;;;;;1.80;1.00;;;15.30;91.80;;;;;;4958505;28;20473;-65
2023/05/17 12:47:30;;;;;;;1.20;1.10;;;15.30;92.10;;;;;;4961905;28;20419;-65
2023/05/17 12:49:58;;;;;;;1.03;0.83;;;15.20;92.20;;;;;;4963377;28;20441;-64
2023/05/17 12:52:24;;;;;;;1.60;1.23;;;15.20;92.60;;;;;;4954810;28;20419;-64
2023/05/17 12:54:50;;;;;;;2.27;1.60;;;15.20;92.00;;;;;;4958922;28;20448;-65
2023/05/17 12:57:17;;;;;;;2.40;2.23;;;15.20;92.30;;;;;;4954583;28;20700;-65
2023/05/17 12:59:51;;;;;;;0.90;0.90;;;15.20;92.40;;;;;;4957739;28;20400;-65
2023/05/17 13:02:19;;;;;;;2.30;1.67;;;15.20;92.50;;;;;;4954700;28;20416;-66
2023/05/17 13:04:45;;;;;;;1.40;1.20;;;15.30;92.60;;;;;;4953921;28;20851;-64
2023/05/17 13:07:11;;;;;;;1.23;1.13;;;15.20;92.70;;;;;;4962222;28;20531;-64
2023/05/17 13:09:46;;;;;;;1.00;0.93;;;15.20;92.50;;;;;;4973894;28;20557;-64
2023/05/17 13:12:18;;;;;;;1.80;1.20;;;15.30;93.00;;;;;;4974374;28;20165;-65
2023/05/17 13:14:46;;;;;;;1.20;1.10;;;15.40;92.70;;;;;;4973899;28;20841;-65
2023/05/17 13:17:21;;;;;;;1.30;1.20;;;15.60;92.40;;;;;;4974526;28;20442;-65
2023/05/17 13:19:47;;;;;;;1.20;1.17;;;15.80;92.30;;;;;;4973958;28;20951;-64
2023/05/17 13:22:14;;;;;;;2.23;1.33;;;15.90;91.00;;;;;;4974149;28;20493;-64
2023/05/17 13:24:41;;;;;;;1.57;1.30;;;15.90;90.80;;;;;;4973074;28;20213;-65
2023/05/17 13:27:07;;;;;;;1.37;1.27;;;16.00;91.10;;;;;;4974300;28;20460;-65
2023/05/17 13:29:35;;;;;;;1.20;1.10;;;16.00;91.30;;;;;;4973976;28;20427;-67
2023/05/17 13:32:01;;;;;;;2.43;1.73;;;16.00;90.70;;;;;;4965807;28;20169;-65
2023/05/17 13:34:26;;;;;;;1.57;1.47;;;16.00;90.30;;;;;;4957410;28;20507;-66
2023/05/17 13:36:52;;;;;;;2.47;1.10;;;15.90;91.10;;;;;;4963383;28;20180;-65
2023/05/17 13:39:18;;;;;;;1.80;1.30;;;15.90;90.70;;;;;;4977413;28;20185;-65
2023/05/17 13:41:44;;;;;;;2.37;1.70;;;15.70;90.50;;;;;;4977891;28;20256;-65
2023/05/17 13:44:10;;;;;;;1.40;1.17;;;15.50;91.20;;;;;;4977294;28;20999;-65
2023/05/17 13:46:35;;;;;;;2.20;1.50;;;15.40;91.10;;;;;;4978114;28;20437;-64
2023/05/17 13:49:03;;;;;;;1.50;1.40;;;15.30;91.00;;;;;;4977738;28;20176;-65
2023/05/17 13:51:31;;;;;;;1.73;1.47;;;15.20;91.50;;;;;;4977628;28;20164;-65
2023/05/17 13:53:57;;;;;;;1.40;1.20;;;15.10;91.50;;;;;;4957987;28;20491;-64
2023/05/17 13:56:23;;;;;;;2.50;2.13;;;15.00;91.70;;;;;;4958659;29;20500;-66
2023/05/17 13:58:49;;;;;;;1.97;1.83;;;15.00;91.80;;;;;;4964327;28;20180;-65
2023/05/17 14:01:15;;;;;;;1.50;1.23;;;15.00;91.90;;;;;;4977536;28;20172;-64
2023/05/17 14:03:41;;;;;;;1.00;1.00;;;15.00;91.90;;;;;;4976379;28;20514;-65
2023/05/17 14:06:06;;;;;;;1.97;1.83;;;15.00;91.50;;;;;;4977271;28;20865;-66
2023/05/17 14:08:34;;;;;;;3.73;1.87;;;15.10;91.40;;;;;;4977209;28;20190;-65
2023/05/17 14:10:59;;;;;;;1.87;1.77;;;15.10;91.50;;;;;;4977273;28;20170;-64
2023/05/17 14:13:27;;;;;;;1.73;1.30;;;15.20;91.40;;;;;;4961055;28;20430;-64
2023/05/17 14:15:52;;;;;;;1.40;1.30;;;15.20;91.80;;;;;;4957764;29;20192;-64
2023/05/17 14:18:18;;;;;;;1.30;1.20;;;15.30;91.20;;;;;;4958342;28;20419;-67
2023/05/17 14:20:44;;;;;;;1.60;1.50;;;15.20;91.20;;;;;;4976671;28;20173;-67
2023/05/17 14:23:09;;;;;;;1.53;1.43;;;15.10;90.40;;;;;;4976863;28;20714;-66
2023/05/17 14:25:35;;;;;;;1.27;1.27;;;15.10;90.20;;;;;;4975976;28;20231;-67
2023/05/17 14:28:00;;;;;;;1.20;1.07;;;15.10;89.60;;;;;;4959232;28;20180;-66
2023/05/17 14:30:26;;;;;;;1.03;1.03;;;15.10;89.10;;;;;;4961047;28;20185;-65
2023/05/17 14:32:51;;;;;;;1.13;1.00;;;15.00;90.40;;;;;;4971517;28;20218;-65
2023/05/17 14:35:17;;;;;;;1.23;1.13;;;15.00;89.80;;;;;;4959255;28;20204;-66
2023/05/17 14:37:43;;;;;;;1.60;1.50;;;15.00;90.10;;;;;;4976738;28;20188;-67
2023/05/17 14:40:10;;;;;;;1.37;1.27;;;14.90;89.50;;;;;;4976182;28;20209;-65
2023/05/17 14:42:37;;;;;;;1.50;1.40;;;15.00;87.60;;;;;;4976681;28;20180;-64
2023/05/17 14:45:03;;;;;;;1.80;1.33;;;14.90;88.10;;;;;;4974289;28;20495;-65
2023/05/17 14:47:29;;;;;;;1.30;1.30;;;15.00;88.30;;;;;;4968268;28;20830;-64
2023/05/17 14:49:55;;;;;;;1.40;1.00;;;15.00;88.10;;;;;;4969846;28;20436;-64
2023/05/17 14:52:21;;;;;;;0.97;0.97;;;15.00;89.30;;;;;;4981774;28;20195;-64
2023/05/17 14:54:46;;;;;;;1.57;1.47;;;15.00;90.20;;;;;;4975043;28;20445;-63
2023/05/17 14:57:12;;;;;;;1.40;1.30;;;15.00;90.80;;;;;;4975962;28;20184;-63
2023/05/17 14:59:38;;;;;;;1.53;1.20;;;15.00;90.90;;;;;;4975110;28;20221;-66
2023/05/17 15:02:04;;;;;;;2.23;1.90;;;14.90;91.50;;;;;;4955368;28;20442;-66
2023/05/17 15:04:30;;;;;;;1.43;1.20;;;14.80;91.80;;;;;;4974749;28;20212;-65
2023/05/17 15:06:56;;;;;;;5.40;1.77;;;14.70;92.20;;;;;;4974959;28;20442;-65
2023/05/17 15:09:22;;;;;;;1.93;1.10;;;14.50;92.10;;;;;;4974806;28;20199;-65
2023/05/17 15:11:49;;;;;;;1.40;1.30;;;14.50;91.90;;;;;;4974485;28;20940;-65
2023/05/17 15:14:21;;;;;;;2.57;1.20;;;14.40;92.00;;;;;;4974099;28;20859;-66
2023/05/17 15:16:47;;;;;;;1.63;1.50;;;14.30;91.90;;;;;;4974336;28;20435;-65
2023/05/17 15:19:14;;;;;;;2.70;1.27;;;14.30;92.00;;;;;;4973843;28;20431;-65
2023/05/17 15:21:40;;;;;;;1.83;1.30;;;14.20;92.00;;;;;;4975171;28;20848;-67
2023/05/17 15:24:05;;;;;;;1.80;1.70;;;14.20;91.90;;;;;;4974449;28;20555;-66
2023/05/17 15:26:31;;;;;;;1.43;1.10;;;14.10;92.30;;;;;;4974463;28;20191;-66
2023/05/17 15:28:56;;;;;;;0.90;0.90;;;14.00;92.60;;;;;;4975198;28;20270;-66
2023/05/17 15:31:23;;;;;;;1.53;1.43;;;14.00;92.50;;;;;;4975536;28;20638;-66
2023/05/17 15:33:49;;;;;;;1.77;1.67;;;13.90;92.30;;;;;;4974844;28;20665;-68
2023/05/17 15:36:15;;;;;;;2.27;1.00;;;14.00;92.40;;;;;;4975398;28;20466;-66
2023/05/17 15:38:41;;;;;;;1.67;1.57;;;14.00;92.40;;;;;;4974907;28;20435;-65
2023/05/17 15:41:14;;;;;;;6.70;1.47;;;14.10;92.40;;;;;;4974978;28;20427;-66
2023/05/17 15:43:41;;;;;;;1.40;1.37;;;14.20;92.10;;;;;;4974187;28;20681;-65
2023/05/17 15:46:06;;;;;;;5.97;1.47;;;14.20;91.80;;;;;;4975249;28;20834;-67
2023/05/17 15:48:32;;;;;;;0.80;0.80;;;14.20;91.40;;;;;;4974640;28;20424;-67
2023/05/17 15:50:58;;;;;;;1.57;1.47;;;14.10;91.00;;;;;;4967001;28;20183;-66
2023/05/17 15:53:25;;;;;;;1.83;1.20;;;14.10;90.30;;;;;;4972188;28;20442;-65
2023/05/17 15:55:51;;;;;;;1.73;1.63;;;14.10;90.20;;;;;;4974288;28;20814;-67
2023/05/17 15:58:18;;;;;;;1.03;1.03;;;14.10;89.40;;;;;;4974008;28;20432;-67
2023/05/17 16:00:44;;;;;;;0.83;0.83;;;14.10;89.50;;;;;;4974507;28;20187;-67
2023/05/17 16:03:10;;;;;;;1.50;1.40;;;14.20;89.70;;;;;;4971639;28;20918;-65
2023/05/17 16:05:36;;;;;;;1.60;1.50;;;14.30;90.20;;;;;;4975164;28;20545;-66
2023/05/17 16:08:02;;;;;;;1.57;0.90;;;14.30;90.90;;;;;;4975123;28;20830;-66
2023/05/17 16:10:27;;;;;;;1.47;1.20;;;14.20;89.00;;;;;;4958031;28;20180;-66
2023/05/17 16:12:53;;;;;;;2.93;1.90;;;14.00;89.80;;;;;;4974910;28;20192;-66
2023/05/17 16:15:19;;;;;;;1.20;1.20;;;13.90;90.60;;;;;;4973855;28;20205;-66
2023/05/17 16:17:44;;;;;;;0.87;0.87;;;13.90;90.90;;;;;;4970361;28;20254;-66
2023/05/17 16:20:11;;;;;;;1.17;1.07;;;13.90;90.70;;;;;;4975338;28;20186;-65
2023/05/17 16:22:45;;;;;;;1.90;1.80;;;13.90;90.90;;;;;;4975281;28;20211;-64
2023/05/17 16:25:22;;;;;;;1.53;1.43;;;13.80;90.80;;;;;;4974565;28;20470;-62
2023/05/17 16:27:48;;;;;;;2.57;1.60;;;13.70;90.60;;;;;;4975171;28;20410;-64
2023/05/17 16:30:15;;;;;;;1.17;1.07;;;13.60;90.70;;;;;;4974610;28;20493;-66
2023/05/17 16:32:41;;;;;;;1.07;1.00;;;13.60;90.30;;;;;;4974707;28;20461;-62
2023/05/17 16:35:07;;;;;;;2.17;1.43;;;13.60;89.70;;;;;;4974257;28;20886;-65
2023/05/17 16:37:32;;;;;;;1.57;1.47;;;13.60;90.00;;;;;;4957406;28;20421;-63
2023/05/17 16:39:58;;;;;;;1.00;1.00;;;13.50;90.20;;;;;;4973942;28;20434;-66
2023/05/17 16:42:24;;;;;;;2.00;0.80;;;13.50;90.90;;;;;;4974373;28;20234;-68
2023/05/17 16:44:50;;;;;;;1.20;1.10;;;13.50;91.20;;;;;;4973776;28;20238;-68
2023/05/17 16:47:16;;;;;;;1.27;1.13;;;13.50;91.10;;;;;;4974315;28;20168;-69
2023/05/17 16:49:42;;;;;;;1.03;0.93;;;13.50;91.10;;;;;;4973972;28;20175;-65
2023/05/17 16:52:08;;;;;;;1.93;1.67;;;13.40;91.80;;;;;;4974397;28;20525;-67